Senior — CNA4920 — position and weather

sailwx.info

Track history (hours):
 
Tides and Currents Weather Stations Pressure Air Temp Water Temp Dewpoint Dewpoint Depression Visibility Wind Speed Wind Dir Waves Ship Positions

Senior

Last reported at 2018-Jan-05 07:04 UTC. Time now 2018-Jan-22 00:24 UTC.
Position N 24°08' W 016°05'.
Warning: this ship's position is 16 days out of date.

Length 62 m; draft 6.4 m.

Type: Fishing. MMSI: 242185100.

Date/timePositionNaut miles runAvg speedWind from/ knotsBaromVisibWave heightAir tempDewpointWater temp
2018-Jan-05 07:04N 24°08' W 016°05'1 5.2
2018-Jan-05 06:49N 24°09' W 016°04'4 0.6
2018-Jan-04 23:58N 24°06' W 016°01'3 4.0
2018-Jan-04 23:07N 24°09' W 016°02'1 4.5
2018-Jan-04 22:58N 24°09' W 016°03'4 4.6
2018-Jan-04 22:13N 24°12' W 016°06'14 0.8
2018-Jan-04 04:18N 24°18' W 015°53'1 4.2
2018-Jan-04 04:00N 24°19' W 015°54'7 2.5
2018-Jan-04 01:03N 24°13' W 015°60'0 4.0
2018-Jan-04 01:00N 24°13' W 015°60'7 3.9
2018-Jan-03 23:06N 24°06' W 016°03'0 4.3
2018-Jan-03 23:00N 24°06' W 016°03'41 1.4
2018-Jan-02 17:29N 24°33' W 015°29'17 1.7
2018-Jan-02 07:09N 24°23' W 015°45'  
Track history (hours):
 
Tides and Currents Weather Stations Pressure Air Temp Water Temp Dewpoint Dewpoint Depression Visibility Wind Speed Wind Dir Waves Ship Positions

Senior

Last reported at 2018-Jan-05 07:04 UTC. Time now 2018-Jan-22 00:24 UTC.
Position N 24°08' W 016°05'.
Warning: this ship's position is 16 days out of date.

Length 62 m; draft 6.4 m.

Type: Fishing. MMSI: 242185100.

Date/timePositionNaut miles runAvg speedWind from/ knotsBaromVisibWave heightAir tempDewpointWater temp
2018-Jan-05 07:04N 24°08' W 016°05'1 5.2
2018-Jan-05 06:49N 24°09' W 016°04'4 0.6
2018-Jan-04 23:58N 24°06' W 016°01'3 4.0
2018-Jan-04 23:07N 24°09' W 016°02'1 4.5
2018-Jan-04 22:58N 24°09' W 016°03'4 4.6
2018-Jan-04 22:13N 24°12' W 016°06'14 0.8
2018-Jan-04 04:18N 24°18' W 015°53'1 4.2
2018-Jan-04 04:00N 24°19' W 015°54'7 2.5
2018-Jan-04 01:03N 24°13' W 015°60'0 4.0
2018-Jan-04 01:00N 24°13' W 015°60'7 3.9
2018-Jan-03 23:06N 24°06' W 016°03'0 4.3
2018-Jan-03 23:00N 24°06' W 016°03'41 1.4
2018-Jan-02 17:29N 24°33' W 015°29'17 1.7
2018-Jan-02 07:09N 24°23' W 015°45'  

Dump ship's entire track history